• Join FlightAware (Why Join?)
  • Login
  • US Flag 
08:15AM EDT


 

Airport Tracker/Info


-or-


 

Live Flight TrackerFlight Track Log ✈ SWA3206 ✈ 29-Apr-2013 ✈ KSAN - KPHX

Flight Track Log - Related Links

Times and Time Zones

All times are in EDT time to prevent confusion due to time zone crossing. See the SWA3206 flight status page for this flight to view local times or setup timezone preferences in your user account.

Time Position Orientation Groundspeed Altitude Reporting Facility
EDT Latitude Longitude Course Direction KTS MPH feet Rate Location/Type
06:57PM 32.7572 -117.3083 285° West 222 255 4,700  Level Los Angeles Center
06:58PM 32.6919 -117.3103 181° South 253 291 7,800 3,300 Climbing Los Angeles Center
06:59PM 32.6483 -117.2361 125° Southeast 272 313 11,600 3,600 Climbing Los Angeles Center
07:00PM 32.6303 -117.1042 99° East 332 382 15,300 3,600 Climbing Los Angeles Center
07:01PM 32.6117 -116.9831 100° East 362 417 19,100 3,300 Climbing Los Angeles Center
07:02PM 32.6142 -116.8106 84° East  Level FlightAware Approximate
07:03PM 32.6231 -116.8586 84° East 383 441 22,200  Level Los Angeles Center
07:04PM 32.6344 -116.7297 84° East 394 453 23,400 2,160 Climbing Los Angeles Center
07:05PM 32.6475 -116.6008 83° East 396 456 26,700 1,740 Climbing Los Angeles Center
07:06PM 32.6619 -116.4497 83° East 391 450 27,000 120 Climbing Los Angeles Center
07:07PM 32.6753 -116.3067 84° East 441 507 27,000  Level Los Angeles Center
07:08PM 32.6889 -116.1614 84° East 449 517 27,000  Level Los Angeles Center
07:09PM 32.7028 -116.0169 83° East 446 513 27,000  Level Los Angeles Center
07:10PM 32.7161 -115.8711 84° East 447 514 27,000  Level Los Angeles Center
07:11PM 32.7319 -115.6958 84° East 447 514 27,000  Level Los Angeles Center
07:12PM 32.7458 -115.5486 84° East 449 517 27,000  Level Los Angeles Center
07:13PM 32.7531 -115.4019 87° East 448 516 27,000  Level Los Angeles Center
07:14PM 32.7550 -115.2539 89° East 449 517 27,000  Level Los Angeles Center
07:15PM 32.7614 -115.1053 87° East 449 517 27,000  Level Los Angeles Center
07:16PM 32.7642 -114.9267 89° East 451 519 27,000  Level Los Angeles Center
07:17PM 32.7664 -114.7794 89° East 446 513 27,000  Level Los Angeles Center
07:18PM 32.7694 -114.6319 89° East 447 514 27,000  Level Los Angeles Center
07:19PM 32.7725 -114.4847 89° East 447 514 27,000  Level Los Angeles Center
07:20PM 32.7739 -114.3378 89° East 447 514 27,000  Level Los Angeles Center
07:21PM 32.7753 -114.1908 89° East 445 512 27,000 -840 Level Los Angeles Center
07:22PM 32.7764 -114.1125 89° East 446 513 25,800 -1,500 Descending Albuquerque Center
07:23PM 32.7775 -113.9678 89° East 440 506 24,900 -420 Descending Albuquerque Center
07:24PM 32.7961 -113.8336 81° East 418 481 25,000  Climbing Albuquerque Center
07:25PM 32.8167 -113.7014 79° East 409 471 25,000 -60 Level Albuquerque Center
07:26PM 32.8836 -113.5958 53° Northeast 400 460 24,900 -60 Descending Albuquerque Center
07:27PM 32.9583 -113.4975 48° Northeast 399 459 24,900 -1,140 Level Albuquerque Center
07:28PM 33.0303 -113.3989 49° Northeast 395 455 22,600 -1,440 Descending Albuquerque Center
07:29PM 33.1006 -113.3025 49° Northeast 387 445 22,000 -1,200 Descending Albuquerque Center
07:30PM 33.1706 -113.2100 48° Northeast 378 435 20,200 -2,340 Descending Albuquerque Center
07:31PM 33.2478 -113.1011 50° Northeast 363 418 17,300 -1,620 Descending Albuquerque Center
07:32PM 33.2761 -112.9978 72° East 346 398 16,900 -420 Descending Albuquerque Center
07:33PM 33.2786 -112.8847 88° East 341 392 16,500 -540 Descending Albuquerque Center
07:34PM 33.2819 -112.7725 88° East 339 390 15,900 -300 Descending Albuquerque Center
07:35PM 33.2844 -112.6514 89° East 354 407 15,900 -1,140 Level Albuquerque Center
07:36PM 33.2881 -112.5144 88° East 372 428 13,600 -2,340 Descending Albuquerque Center
07:37PM 33.2911 -112.3939 88° East 366 421 11,200 -1,620 Descending Albuquerque Center
07:38PM 33.2967 -112.2756 87° East 360 414 10,300 -960 Descending Albuquerque Center
07:39PM 33.3053 -112.1708 84° East 321 369 9,300 -840 Descending Albuquerque Center
07:40PM 33.3156 -112.0764 83° East 292 336 8,600 -960 Descending Albuquerque Center
07:41PM 33.3378 -111.9886 73° East 271 312 7,400 -1,080 Descending Albuquerque Center
07:42PM 33.3461 -111.9078 83° East 256 295 6,400 -1,260 Descending Albuquerque Center
07:43PM 33.3733 -111.8394 64° Northeast 216 249 4,900 -1,440 Descending Albuquerque Center
07:44PM 33.4133 -111.8617 335° Northwest 202 232 3,500 -1,320 Descending Albuquerque Center
07:45PM 33.4294 -111.9167 289° West 178 205 2,300 -960 Descending Albuquerque Center
07:46PM 33.4319 -111.9647 274° West 146 168 1,600 -600 Descending Albuquerque Center
07:47PM 33.4297 -112.0153 267° West 135 155 1,100 -540 Descending Albuquerque Center